sensor_id;sensor_type;location;lat;lon;timestamp;pressure;altitude;pressure_sealevel;temperature;humidity
25944;BME280;13742;49.306;8.636;2023-02-28T00:00:23;101463.27;;;1.13;56.01
25944;BME280;13742;49.306;8.636;2023-02-28T00:01:23;101463.23;;;1.13;56.02
25944;BME280;13742;49.306;8.636;2023-02-28T00:02:23;101461.63;;;1.15;55.90
25944;BME280;13742;49.306;8.636;2023-02-28T00:03:23;101466.71;;;1.16;56.04
25944;BME280;13742;49.306;8.636;2023-02-28T00:04:23;101463.05;;;1.15;55.92
25944;BME280;13742;49.306;8.636;2023-02-28T00:05:24;101462.52;;;1.15;55.96
25944;BME280;13742;49.306;8.636;2023-02-28T00:06:24;101461.72;;;1.16;56.31
25944;BME280;13742;49.306;8.636;2023-02-28T00:07:23;101462.36;;;1.15;56.26
25944;BME280;13742;49.306;8.636;2023-02-28T00:08:23;101462.50;;;1.17;56.17
25944;BME280;13742;49.306;8.636;2023-02-28T00:09:23;101464.46;;;1.10;56.29
25944;BME280;13742;49.306;8.636;2023-02-28T00:10:25;101465.53;;;1.12;56.21
25944;BME280;13742;49.306;8.636;2023-02-28T00:11:23;101465.47;;;1.09;56.19
25944;BME280;13742;49.306;8.636;2023-02-28T00:12:23;101461.39;;;1.09;56.21
25944;BME280;13742;49.306;8.636;2023-02-28T00:13:23;101461.52;;;1.09;56.16
25944;BME280;13742;49.306;8.636;2023-02-28T00:14:23;101461.28;;;1.09;56.32
25944;BME280;13742;49.306;8.636;2023-02-28T00:15:23;101465.44;;;1.06;56.46
25944;BME280;13742;49.306;8.636;2023-02-28T00:16:23;101460.35;;;1.07;56.34
25944;BME280;13742;49.306;8.636;2023-02-28T00:17:23;101463.97;;;1.03;56.49
25944;BME280;13742;49.306;8.636;2023-02-28T00:18:23;101462.82;;;1.06;56.52
25944;BME280;13742;49.306;8.636;2023-02-28T00:19:23;101460.08;;;1.04;56.51
25944;BME280;13742;49.306;8.636;2023-02-28T00:20:23;101460.55;;;1.06;56.82
25944;BME280;13742;49.306;8.636;2023-02-28T00:21:24;101461.16;;;1.07;56.73
25944;BME280;13742;49.306;8.636;2023-02-28T00:22:23;101460.61;;;1.08;56.59
25944;BME280;13742;49.306;8.636;2023-02-28T00:23:24;101458.41;;;1.07;56.60
25944;BME280;13742;49.306;8.636;2023-02-28T00:24:23;101458.09;;;1.05;56.64
25944;BME280;13742;49.306;8.636;2023-02-28T00:25:24;101458.63;;;1.05;56.64
25944;BME280;13742;49.306;8.636;2023-02-28T00:26:23;101457.70;;;1.03;56.63
25944;BME280;13742;49.306;8.636;2023-02-28T00:27:23;101459.45;;;1.03;56.58
25944;BME280;13742;49.306;8.636;2023-02-28T00:28:24;101456.77;;;1.02;56.75
25944;BME280;13742;49.306;8.636;2023-02-28T00:29:23;101456.41;;;0.99;56.80
25944;BME280;13742;49.306;8.636;2023-02-28T00:30:23;101454.47;;;1.00;56.86
25944;BME280;13742;49.306;8.636;2023-02-28T00:31:23;101454.13;;;0.99;56.77
25944;BME280;13742;49.306;8.636;2023-02-28T00:32:23;101453.67;;;1.02;57.06
25944;BME280;13742;49.306;8.636;2023-02-28T00:33:23;101454.42;;;1.00;56.96
25944;BME280;13742;49.306;8.636;2023-02-28T00:34:23;101454.81;;;0.99;57.06
25944;BME280;13742;49.306;8.636;2023-02-28T00:35:23;101454.81;;;0.99;56.98
25944;BME280;13742;49.306;8.636;2023-02-28T00:36:23;101456.02;;;0.98;57.16
25944;BME280;13742;49.306;8.636;2023-02-28T00:37:23;101454.32;;;0.98;57.09
25944;BME280;13742;49.306;8.636;2023-02-28T00:38:23;101454.16;;;0.94;57.33
25944;BME280;13742;49.306;8.636;2023-02-28T00:39:23;101452.80;;;0.94;57.48
25944;BME280;13742;49.306;8.636;2023-02-28T00:40:23;101459.95;;;0.96;57.35
25944;BME280;13742;49.306;8.636;2023-02-28T00:41:23;101457.30;;;0.96;57.38
25944;BME280;13742;49.306;8.636;2023-02-28T00:42:23;101456.49;;;0.96;57.35
25944;BME280;13742;49.306;8.636;2023-02-28T00:43:23;101458.34;;;0.94;57.40
25944;BME280;13742;49.306;8.636;2023-02-28T00:44:23;101456.77;;;0.92;57.47
25944;BME280;13742;49.306;8.636;2023-02-28T00:45:23;101460.10;;;0.92;57.64
25944;BME280;13742;49.306;8.636;2023-02-28T00:46:23;101465.25;;;0.91;57.77
25944;BME280;13742;49.306;8.636;2023-02-28T00:47:23;101464.11;;;0.91;57.85
25944;BME280;13742;49.306;8.636;2023-02-28T00:48:23;101463.06;;;0.91;57.77
25944;BME280;13742;49.306;8.636;2023-02-28T00:49:24;101461.63;;;0.90;57.88
25944;BME280;13742;49.306;8.636;2023-02-28T00:50:23;101461.34;;;0.91;58.03
25944;BME280;13742;49.306;8.636;2023-02-28T00:51:23;101459.38;;;0.89;58.17
25944;BME280;13742;49.306;8.636;2023-02-28T00:52:23;101456.93;;;0.88;58.21
25944;BME280;13742;49.306;8.636;2023-02-28T00:53:23;101460.77;;;0.87;58.40
25944;BME280;13742;49.306;8.636;2023-02-28T00:54:23;101462.57;;;0.88;58.28
25944;BME280;13742;49.306;8.636;2023-02-28T00:55:23;101456.50;;;0.86;58.43
25944;BME280;13742;49.306;8.636;2023-02-28T00:56:23;101459.40;;;0.87;58.18
25944;BME280;13742;49.306;8.636;2023-02-28T00:57:23;101456.18;;;0.90;58.57
25944;BME280;13742;49.306;8.636;2023-02-28T00:58:23;101459.44;;;0.90;58.28
25944;BME280;13742;49.306;8.636;2023-02-28T00:59:23;101458.88;;;0.87;58.46
25944;BME280;13742;49.306;8.636;2023-02-28T01:00:23;101462.67;;;0.85;58.73
25944;BME280;13742;49.306;8.636;2023-02-28T01:01:23;101462.67;;;0.86;58.74
25944;BME280;13742;49.306;8.636;2023-02-28T01:02:23;101457.79;;;0.85;58.86
25944;BME280;13742;49.306;8.636;2023-02-28T01:03:23;101461.36;;;0.85;58.58
25944;BME280;13742;49.306;8.636;2023-02-28T01:04:23;101461.80;;;0.85;58.92
25944;BME280;13742;49.306;8.636;2023-02-28T01:05:23;101454.88;;;0.84;58.98
25944;BME280;13742;49.306;8.636;2023-02-28T01:06:23;101455.55;;;0.82;59.19
25944;BME280;13742;49.306;8.636;2023-02-28T01:07:23;101459.75;;;0.83;59.31
25944;BME280;13742;49.306;8.636;2023-02-28T01:08:23;101457.02;;;0.85;59.32
25944;BME280;13742;49.306;8.636;2023-02-28T01:09:23;101454.27;;;0.83;59.22
25944;BME280;13742;49.306;8.636;2023-02-28T01:10:24;101456.62;;;0.82;59.29
25944;BME280;13742;49.306;8.636;2023-02-28T01:11:23;101458.96;;;0.82;59.21
25944;BME280;13742;49.306;8.636;2023-02-28T01:12:23;101456.86;;;0.78;59.43
25944;BME280;13742;49.306;8.636;2023-02-28T01:13:25;101457.30;;;0.79;59.49
25944;BME280;13742;49.306;8.636;2023-02-28T01:14:23;101454.63;;;0.79;59.68
25944;BME280;13742;49.306;8.636;2023-02-28T01:15:23;101458.89;;;0.79;59.67
25944;BME280;13742;49.306;8.636;2023-02-28T01:16:23;101455.83;;;0.78;59.73
25944;BME280;13742;49.306;8.636;2023-02-28T01:17:23;101459.64;;;0.77;59.87
25944;BME280;13742;49.306;8.636;2023-02-28T01:18:24;101450.67;;;0.78;59.80
25944;BME280;13742;49.306;8.636;2023-02-28T01:19:23;101455.52;;;0.76;60.03
25944;BME280;13742;49.306;8.636;2023-02-28T01:20:23;101462.08;;;0.77;60.13
25944;BME280;13742;49.306;8.636;2023-02-28T01:21:23;101459.44;;;0.78;60.07
25944;BME280;13742;49.306;8.636;2023-02-28T01:22:23;101461.08;;;0.78;60.04
25944;BME280;13742;49.306;8.636;2023-02-28T01:23:23;101458.50;;;0.77;60.03
25944;BME280;13742;49.306;8.636;2023-02-28T01:24:23;101455.54;;;0.78;60.00
25944;BME280;13742;49.306;8.636;2023-02-28T01:25:23;101454.63;;;0.76;60.15
25944;BME280;13742;49.306;8.636;2023-02-28T01:26:23;101457.72;;;0.76;60.09
25944;BME280;13742;49.306;8.636;2023-02-28T01:27:23;101458.86;;;0.76;59.99
25944;BME280;13742;49.306;8.636;2023-02-28T01:28:23;101460.05;;;0.77;60.30
25944;BME280;13742;49.306;8.636;2023-02-28T01:29:23;101456.98;;;0.76;60.22
25944;BME280;13742;49.306;8.636;2023-02-28T01:30:23;101457.02;;;0.76;60.17
25944;BME280;13742;49.306;8.636;2023-02-28T01:31:23;101457.32;;;0.73;60.47
25944;BME280;13742;49.306;8.636;2023-02-28T01:32:23;101458.97;;;0.72;60.55
25944;BME280;13742;49.306;8.636;2023-02-28T01:33:23;101455.88;;;0.72;60.57
25944;BME280;13742;49.306;8.636;2023-02-28T01:34:23;101455.00;;;0.73;60.71
25944;BME280;13742;49.306;8.636;2023-02-28T01:35:23;101456.51;;;0.73;60.63
25944;BME280;13742;49.306;8.636;2023-02-28T01:36:23;101453.55;;;0.74;60.52
25944;BME280;13742;49.306;8.636;2023-02-28T01:37:23;101455.95;;;0.72;60.72
25944;BME280;13742;49.306;8.636;2023-02-28T01:38:23;101457.05;;;0.71;60.74
25944;BME280;13742;49.306;8.636;2023-02-28T01:39:23;101454.43;;;0.70;60.52
25944;BME280;13742;49.306;8.636;2023-02-28T01:40:23;101456.70;;;0.70;60.63
25944;BME280;13742;49.306;8.636;2023-02-28T01:41:27;101457.38;;;0.69;60.60
25944;BME280;13742;49.306;8.636;2023-02-28T01:42:23;101453.76;;;0.68;60.78
25944;BME280;13742;49.306;8.636;2023-02-28T01:43:25;101459.08;;;0.68;61.06
25944;BME280;13742;49.306;8.636;2023-02-28T01:45:25;101454.20;;;0.65;61.29
25944;BME280;13742;49.306;8.636;2023-02-28T01:46:23;101448.70;;;0.66;61.13
25944;BME280;13742;49.306;8.636;2023-02-28T01:47:23;101454.73;;;0.65;61.12
25944;BME280;13742;49.306;8.636;2023-02-28T01:48:33;101454.22;;;0.66;60.94
25944;BME280;13742;49.306;8.636;2023-02-28T01:49:23;101453.19;;;0.65;61.08
25944;BME280;13742;49.306;8.636;2023-02-28T01:50:25;101453.30;;;0.64;61.33
25944;BME280;13742;49.306;8.636;2023-02-28T01:51:31;101453.31;;;0.62;61.40
25944;BME280;13742;49.306;8.636;2023-02-28T01:52:24;101453.12;;;0.62;61.35
25944;BME280;13742;49.306;8.636;2023-02-28T01:53:24;101448.86;;;0.63;61.17
25944;BME280;13742;49.306;8.636;2023-02-28T01:54:24;101452.11;;;0.63;61.19
25944;BME280;13742;49.306;8.636;2023-02-28T01:55:23;101448.19;;;0.61;61.33
25944;BME280;13742;49.306;8.636;2023-02-28T01:56:24;101448.42;;;0.61;61.34
25944;BME280;13742;49.306;8.636;2023-02-28T01:57:24;101445.59;;;0.58;61.47
25944;BME280;13742;49.306;8.636;2023-02-28T01:58:23;101446.77;;;0.58;61.47
25944;BME280;13742;49.306;8.636;2023-02-28T01:59:27;101442.23;;;0.56;61.61
25944;BME280;13742;49.306;8.636;2023-02-28T02:00:25;101441.42;;;0.56;61.62
25944;BME280;13742;49.306;8.636;2023-02-28T02:01:24;101441.38;;;0.57;61.73
25944;BME280;13742;49.306;8.636;2023-02-28T02:02:23;101442.08;;;0.57;61.62
25944;BME280;13742;49.306;8.636;2023-02-28T02:03:23;101440.25;;;0.57;61.70
25944;BME280;13742;49.306;8.636;2023-02-28T02:04:23;101443.47;;;0.58;61.71
25944;BME280;13742;49.306;8.636;2023-02-28T02:05:25;101440.44;;;0.56;61.78
25944;BME280;13742;49.306;8.636;2023-02-28T02:06:28;101436.42;;;0.53;61.86
25944;BME280;13742;49.306;8.636;2023-02-28T02:07:23;101440.53;;;0.51;62.09
25944;BME280;13742;49.306;8.636;2023-02-28T02:08:24;101438.94;;;0.53;61.88
25944;BME280;13742;49.306;8.636;2023-02-28T02:09:23;101437.19;;;0.50;62.10
25944;BME280;13742;49.306;8.636;2023-02-28T02:11:23;101437.82;;;0.52;61.90
25944;BME280;13742;49.306;8.636;2023-02-28T02:12:29;101434.86;;;0.48;62.36
25944;BME280;13742;49.306;8.636;2023-02-28T02:15:29;101437.09;;;0.49;62.28
25944;BME280;13742;49.306;8.636;2023-02-28T02:16:30;101434.57;;;0.52;62.20
25944;BME280;13742;49.306;8.636;2023-02-28T02:17:43;101435.69;;;0.50;62.11
25944;BME280;13742;49.306;8.636;2023-02-28T02:20:31;101431.72;;;0.48;62.27
25944;BME280;13742;49.306;8.636;2023-02-28T02:27:36;101431.84;;;0.42;62.52
25944;BME280;13742;49.306;8.636;2023-02-28T02:31:46;101428.66;;;0.40;62.66
25944;BME280;13742;49.306;8.636;2023-02-28T02:32:35;101433.41;;;0.40;62.76
25944;BME280;13742;49.306;8.636;2023-02-28T02:33:29;101433.64;;;0.40;62.83
25944;BME280;13742;49.306;8.636;2023-02-28T02:35:27;101429.36;;;0.38;62.96
25944;BME280;13742;49.306;8.636;2023-02-28T02:37:25;101425.69;;;0.37;63.05
25944;BME280;13742;49.306;8.636;2023-02-28T02:38:28;101428.53;;;0.37;62.98
25944;BME280;13742;49.306;8.636;2023-02-28T02:40:25;101425.25;;;0.32;63.45
25944;BME280;13742;49.306;8.636;2023-02-28T02:42:28;101428.75;;;0.35;63.21
25944;BME280;13742;49.306;8.636;2023-02-28T02:43:25;101427.49;;;0.35;63.15
25944;BME280;13742;49.306;8.636;2023-02-28T02:45:25;101426.52;;;0.35;63.27
25944;BME280;13742;49.306;8.636;2023-02-28T02:46:27;101424.81;;;0.32;63.56
25944;BME280;13742;49.306;8.636;2023-02-28T02:47:24;101425.26;;;0.32;63.45
25944;BME280;13742;49.306;8.636;2023-02-28T02:48:27;101424.83;;;0.33;63.48
25944;BME280;13742;49.306;8.636;2023-02-28T02:49:28;101424.02;;;0.30;63.54
25944;BME280;13742;49.306;8.636;2023-02-28T02:50:28;101424.64;;;0.29;63.86
25944;BME280;13742;49.306;8.636;2023-02-28T02:51:23;101426.06;;;0.28;63.66
25944;BME280;13742;49.306;8.636;2023-02-28T02:52:25;101422.31;;;0.25;63.82
25944;BME280;13742;49.306;8.636;2023-02-28T02:53:25;101425.84;;;0.28;63.76
25944;BME280;13742;49.306;8.636;2023-02-28T02:54:25;101422.81;;;0.28;63.68
25944;BME280;13742;49.306;8.636;2023-02-28T02:55:23;101426.56;;;0.26;63.75
25944;BME280;13742;49.306;8.636;2023-02-28T02:56:24;101428.19;;;0.26;63.83
25944;BME280;13742;49.306;8.636;2023-02-28T02:57:25;101428.92;;;0.27;63.63
25944;BME280;13742;49.306;8.636;2023-02-28T02:58:24;101420.53;;;0.25;63.76
25944;BME280;13742;49.306;8.636;2023-02-28T02:59:23;101423.07;;;0.23;63.63
25944;BME280;13742;49.306;8.636;2023-02-28T03:00:25;101421.88;;;0.23;63.83
25944;BME280;13742;49.306;8.636;2023-02-28T03:01:28;101420.47;;;0.23;63.68
25944;BME280;13742;49.306;8.636;2023-02-28T03:02:23;101422.83;;;0.24;63.93
25944;BME280;13742;49.306;8.636;2023-02-28T03:03:29;101421.38;;;0.25;63.81
25944;BME280;13742;49.306;8.636;2023-02-28T03:04:24;101420.77;;;0.22;64.09
25944;BME280;13742;49.306;8.636;2023-02-28T03:05:24;101423.83;;;0.23;63.95
25944;BME280;13742;49.306;8.636;2023-02-28T03:06:24;101420.33;;;0.22;63.74
25944;BME280;13742;49.306;8.636;2023-02-28T03:07:23;101420.55;;;0.24;63.96
25944;BME280;13742;49.306;8.636;2023-02-28T03:08:23;101423.14;;;0.23;63.87
25944;BME280;13742;49.306;8.636;2023-02-28T03:09:23;101423.31;;;0.20;63.99
25944;BME280;13742;49.306;8.636;2023-02-28T03:11:23;101424.47;;;0.19;63.92
25944;BME280;13742;49.306;8.636;2023-02-28T03:12:26;101424.18;;;0.16;64.30
25944;BME280;13742;49.306;8.636;2023-02-28T03:15:27;101419.50;;;0.17;64.22
25944;BME280;13742;49.306;8.636;2023-02-28T03:18:32;101417.31;;;0.15;64.09
25944;BME280;13742;49.306;8.636;2023-02-28T03:19:25;101415.77;;;0.16;64.17
25944;BME280;13742;49.306;8.636;2023-02-28T03:20:27;101414.77;;;0.17;64.09
25944;BME280;13742;49.306;8.636;2023-02-28T03:21:27;101416.92;;;0.16;64.09
25944;BME280;13742;49.306;8.636;2023-02-28T03:23:25;101415.09;;;0.13;64.29
25944;BME280;13742;49.306;8.636;2023-02-28T03:24:34;101418.66;;;0.13;64.30
25944;BME280;13742;49.306;8.636;2023-02-28T03:26:23;101421.23;;;0.11;64.57
25944;BME280;13742;49.306;8.636;2023-02-28T03:27:30;101418.50;;;0.10;64.56
25944;BME280;13742;49.306;8.636;2023-02-28T03:29:33;101415.91;;;0.11;64.39
25944;BME280;13742;49.306;8.636;2023-02-28T03:32:27;101419.86;;;0.09;64.55
25944;BME280;13742;49.306;8.636;2023-02-28T03:33:24;101420.91;;;0.08;64.66
25944;BME280;13742;49.306;8.636;2023-02-28T03:34:31;101421.76;;;0.08;64.57
25944;BME280;13742;49.306;8.636;2023-02-28T03:35:24;101419.78;;;0.07;64.63
25944;BME280;13742;49.306;8.636;2023-02-28T03:36:25;101422.26;;;0.06;64.50
25944;BME280;13742;49.306;8.636;2023-02-28T03:37:23;101426.24;;;0.04;64.63
25944;BME280;13742;49.306;8.636;2023-02-28T03:38:28;101426.58;;;0.05;64.58
25944;BME280;13742;49.306;8.636;2023-02-28T03:39:24;101423.27;;;0.04;64.72
25944;BME280;13742;49.306;8.636;2023-02-28T03:40:25;101426.31;;;0.03;64.55
25944;BME280;13742;49.306;8.636;2023-02-28T03:41:25;101421.54;;;0.02;64.79
25944;BME280;13742;49.306;8.636;2023-02-28T03:42:24;101422.05;;;0.03;64.75
25944;BME280;13742;49.306;8.636;2023-02-28T03:43:26;101423.80;;;0.03;64.66
25944;BME280;13742;49.306;8.636;2023-02-28T03:44:29;101427.30;;;0.01;64.97
25944;BME280;13742;49.306;8.636;2023-02-28T03:45:24;101421.71;;;0.00;64.78
25944;BME280;13742;49.306;8.636;2023-02-28T03:46:24;101425.86;;;0.00;64.84
25944;BME280;13742;49.306;8.636;2023-02-28T03:47:25;101425.61;;;0.00;64.89
25944;BME280;13742;49.306;8.636;2023-02-28T03:48:25;101424.54;;;-0.01;64.91
25944;BME280;13742;49.306;8.636;2023-02-28T03:49:24;101426.90;;;-0.03;65.20
25944;BME280;13742;49.306;8.636;2023-02-28T03:50:24;101423.67;;;-0.03;64.99
25944;BME280;13742;49.306;8.636;2023-02-28T03:51:24;101425.86;;;-0.02;64.88
25944;BME280;13742;49.306;8.636;2023-02-28T03:52:24;101429.05;;;-0.04;65.12
25944;BME280;13742;49.306;8.636;2023-02-28T03:54:25;101429.16;;;-0.04;65.20
25944;BME280;13742;49.306;8.636;2023-02-28T03:55:23;101428.06;;;-0.07;65.31
25944;BME280;13742;49.306;8.636;2023-02-28T03:56:27;101433.91;;;-0.04;65.18
25944;BME280;13742;49.306;8.636;2023-02-28T03:58:30;101430.34;;;-0.07;65.45
25944;BME280;13742;49.306;8.636;2023-02-28T03:59:26;101430.42;;;-0.09;65.67
25944;BME280;13742;49.306;8.636;2023-02-28T04:00:28;101429.72;;;-0.07;65.36
25944;BME280;13742;49.306;8.636;2023-02-28T04:01:45;101429.06;;;-0.08;65.52
25944;BME280;13742;49.306;8.636;2023-02-28T04:02:23;101427.66;;;-0.07;65.34
25944;BME280;13742;49.306;8.636;2023-02-28T04:03:23;101428.17;;;-0.08;65.48
25944;BME280;13742;49.306;8.636;2023-02-28T04:04:23;101430.22;;;-0.09;65.36
25944;BME280;13742;49.306;8.636;2023-02-28T04:05:23;101428.80;;;-0.07;65.75
25944;BME280;13742;49.306;8.636;2023-02-28T04:06:23;101430.98;;;-0.07;65.31
25944;BME280;13742;49.306;8.636;2023-02-28T04:07:23;101427.71;;;-0.06;65.54
25944;BME280;13742;49.306;8.636;2023-02-28T04:08:23;101424.89;;;-0.07;65.10
25944;BME280;13742;49.306;8.636;2023-02-28T04:09:23;101430.31;;;-0.06;65.08
25944;BME280;13742;49.306;8.636;2023-02-28T04:10:23;101433.75;;;-0.07;65.66
25944;BME280;13742;49.306;8.636;2023-02-28T04:11:32;101423.57;;;-0.09;65.54
25944;BME280;13742;49.306;8.636;2023-02-28T04:12:23;101428.21;;;-0.05;65.63
25944;BME280;13742;49.306;8.636;2023-02-28T04:13:23;101425.62;;;-0.10;65.62
25944;BME280;13742;49.306;8.636;2023-02-28T04:14:23;101430.70;;;-0.10;65.47
25944;BME280;13742;49.306;8.636;2023-02-28T04:15:24;101427.83;;;-0.12;65.75
25944;BME280;13742;49.306;8.636;2023-02-28T04:16:23;101427.08;;;-0.13;65.80
25944;BME280;13742;49.306;8.636;2023-02-28T04:17:23;101429.43;;;-0.13;65.93
25944;BME280;13742;49.306;8.636;2023-02-28T04:18:23;101427.69;;;-0.13;65.79
25944;BME280;13742;49.306;8.636;2023-02-28T04:19:23;101429.48;;;-0.13;65.86
25944;BME280;13742;49.306;8.636;2023-02-28T04:20:23;101429.03;;;-0.13;65.74
25944;BME280;13742;49.306;8.636;2023-02-28T04:21:23;101426.67;;;-0.13;66.08
25944;BME280;13742;49.306;8.636;2023-02-28T04:22:26;101427.74;;;-0.12;65.79
25944;BME280;13742;49.306;8.636;2023-02-28T04:23:23;101428.63;;;-0.15;66.12
25944;BME280;13742;49.306;8.636;2023-02-28T04:24:24;101425.58;;;-0.15;66.27
25944;BME280;13742;49.306;8.636;2023-02-28T04:25:23;101426.33;;;-0.14;66.12
25944;BME280;13742;49.306;8.636;2023-02-28T04:26:23;101427.06;;;-0.14;66.00
25944;BME280;13742;49.306;8.636;2023-02-28T04:27:23;101426.09;;;-0.14;65.98
25944;BME280;13742;49.306;8.636;2023-02-28T04:28:23;101429.28;;;-0.12;65.85
25944;BME280;13742;49.306;8.636;2023-02-28T04:29:25;101428.05;;;-0.13;65.81
25944;BME280;13742;49.306;8.636;2023-02-28T04:30:23;101428.58;;;-0.13;65.84
25944;BME280;13742;49.306;8.636;2023-02-28T04:31:23;101429.59;;;-0.13;65.98
25944;BME280;13742;49.306;8.636;2023-02-28T04:32:23;101430.11;;;-0.16;66.23
25944;BME280;13742;49.306;8.636;2023-02-28T04:33:23;101430.23;;;-0.13;65.89
25944;BME280;13742;49.306;8.636;2023-02-28T04:34:23;101424.33;;;-0.12;66.12
25944;BME280;13742;49.306;8.636;2023-02-28T04:35:23;101424.75;;;-0.11;66.33
25944;BME280;13742;49.306;8.636;2023-02-28T04:36:23;101422.70;;;-0.10;66.14
25944;BME280;13742;49.306;8.636;2023-02-28T04:37:27;101427.67;;;-0.12;66.18
25944;BME280;13742;49.306;8.636;2023-02-28T04:38:23;101427.20;;;-0.10;65.90
25944;BME280;13742;49.306;8.636;2023-02-28T04:39:23;101427.11;;;-0.08;66.21
25944;BME280;13742;49.306;8.636;2023-02-28T04:40:23;101425.17;;;-0.08;65.79
25944;BME280;13742;49.306;8.636;2023-02-28T04:41:23;101426.56;;;-0.09;65.92
25944;BME280;13742;49.306;8.636;2023-02-28T04:42:23;101430.25;;;-0.10;65.90
25944;BME280;13742;49.306;8.636;2023-02-28T04:43:23;101430.22;;;-0.09;65.50
25944;BME280;13742;49.306;8.636;2023-02-28T04:44:23;101426.55;;;-0.10;65.88
25944;BME280;13742;49.306;8.636;2023-02-28T04:45:23;101425.98;;;-0.10;65.95
25944;BME280;13742;49.306;8.636;2023-02-28T04:46:23;101428.94;;;-0.08;66.00
25944;BME280;13742;49.306;8.636;2023-02-28T04:47:23;101426.50;;;-0.08;65.92
25944;BME280;13742;49.306;8.636;2023-02-28T04:48:33;101425.66;;;-0.08;65.50
25944;BME280;13742;49.306;8.636;2023-02-28T04:49:23;101425.84;;;-0.09;65.90
25944;BME280;13742;49.306;8.636;2023-02-28T04:50:23;101428.42;;;-0.07;66.08
25944;BME280;13742;49.306;8.636;2023-02-28T04:51:23;101426.90;;;-0.06;65.93
25944;BME280;13742;49.306;8.636;2023-02-28T04:52:23;101428.20;;;-0.06;65.93
25944;BME280;13742;49.306;8.636;2023-02-28T04:53:24;101426.78;;;-0.06;65.71
25944;BME280;13742;49.306;8.636;2023-02-28T04:54:23;101425.53;;;-0.03;66.09
25944;BME280;13742;49.306;8.636;2023-02-28T04:55:23;101423.22;;;-0.05;65.95
25944;BME280;13742;49.306;8.636;2023-02-28T04:56:23;101423.14;;;-0.02;65.85
25944;BME280;13742;49.306;8.636;2023-02-28T04:57:23;101425.16;;;-0.04;65.92
25944;BME280;13742;49.306;8.636;2023-02-28T04:58:23;101430.00;;;-0.05;65.95
25944;BME280;13742;49.306;8.636;2023-02-28T04:59:23;101427.09;;;-0.04;65.86
25944;BME280;13742;49.306;8.636;2023-02-28T05:00:24;101428.13;;;-0.02;65.76
25944;BME280;13742;49.306;8.636;2023-02-28T05:01:27;101427.69;;;-0.02;65.76
25944;BME280;13742;49.306;8.636;2023-02-28T05:02:23;101428.33;;;-0.03;65.69
25944;BME280;13742;49.306;8.636;2023-02-28T05:03:23;101431.30;;;-0.03;65.70
25944;BME280;13742;49.306;8.636;2023-02-28T05:04:23;101429.88;;;-0.02;65.97
25944;BME280;13742;49.306;8.636;2023-02-28T05:05:23;101433.87;;;-0.02;66.00
25944;BME280;13742;49.306;8.636;2023-02-28T05:06:26;101432.49;;;-0.01;65.91
25944;BME280;13742;49.306;8.636;2023-02-28T05:07:23;101430.42;;;-0.02;65.96
25944;BME280;13742;49.306;8.636;2023-02-28T05:08:23;101433.12;;;0.00;65.95
25944;BME280;13742;49.306;8.636;2023-02-28T05:09:23;101433.98;;;0.00;65.73
25944;BME280;13742;49.306;8.636;2023-02-28T05:10:23;101433.09;;;0.01;65.72
25944;BME280;13742;49.306;8.636;2023-02-28T05:11:27;101429.58;;;0.02;65.88
25944;BME280;13742;49.306;8.636;2023-02-28T05:12:23;101431.45;;;0.02;65.56
25944;BME280;13742;49.306;8.636;2023-02-28T05:13:23;101432.50;;;0.02;65.62
25944;BME280;13742;49.306;8.636;2023-02-28T05:14:23;101432.80;;;0.03;65.83
25944;BME280;13742;49.306;8.636;2023-02-28T05:15:23;101433.34;;;0.04;65.56
25944;BME280;13742;49.306;8.636;2023-02-28T05:16:23;101434.23;;;0.03;65.59
25944;BME280;13742;49.306;8.636;2023-02-28T05:17:23;101436.77;;;0.05;65.35
25944;BME280;13742;49.306;8.636;2023-02-28T05:18:23;101436.89;;;0.05;65.48
25944;BME280;13742;49.306;8.636;2023-02-28T05:19:23;101434.05;;;0.05;65.54
25944;BME280;13742;49.306;8.636;2023-02-28T05:20:23;101434.42;;;0.06;65.73
25944;BME280;13742;49.306;8.636;2023-02-28T05:21:28;101440.10;;;0.06;65.76
25944;BME280;13742;49.306;8.636;2023-02-28T05:22:23;101438.36;;;0.05;65.58
25944;BME280;13742;49.306;8.636;2023-02-28T05:23:23;101442.06;;;0.06;65.58
25944;BME280;13742;49.306;8.636;2023-02-28T05:24:23;101441.61;;;0.06;65.58
25944;BME280;13742;49.306;8.636;2023-02-28T05:25:23;101440.98;;;0.07;65.67
25944;BME280;13742;49.306;8.636;2023-02-28T05:26:23;101442.70;;;0.08;65.51
25944;BME280;13742;49.306;8.636;2023-02-28T05:27:23;101440.42;;;0.08;65.43
25944;BME280;13742;49.306;8.636;2023-02-28T05:28:23;101440.75;;;0.08;65.45
25944;BME280;13742;49.306;8.636;2023-02-28T05:29:23;101445.64;;;0.10;65.35
25944;BME280;13742;49.306;8.636;2023-02-28T05:30:23;101446.00;;;0.09;65.47
25944;BME280;13742;49.306;8.636;2023-02-28T05:31:23;101448.76;;;0.09;65.40
25944;BME280;13742;49.306;8.636;2023-02-28T05:32:23;101449.34;;;0.10;65.21
25944;BME280;13742;49.306;8.636;2023-02-28T05:33:23;101450.97;;;0.10;65.36
25944;BME280;13742;49.306;8.636;2023-02-28T05:34:23;101452.08;;;0.11;65.30
25944;BME280;13742;49.306;8.636;2023-02-28T05:35:23;101448.00;;;0.13;65.39
25944;BME280;13742;49.306;8.636;2023-02-28T05:36:23;101451.70;;;0.13;65.32
25944;BME280;13742;49.306;8.636;2023-02-28T05:37:23;101449.02;;;0.13;65.19
25944;BME280;13742;49.306;8.636;2023-02-28T05:38:23;101449.05;;;0.12;65.20
25944;BME280;13742;49.306;8.636;2023-02-28T05:39:23;101449.88;;;0.13;65.33
25944;BME280;13742;49.306;8.636;2023-02-28T05:40:23;101453.17;;;0.14;65.21
25944;BME280;13742;49.306;8.636;2023-02-28T05:41:23;101454.56;;;0.14;65.21
25944;BME280;13742;49.306;8.636;2023-02-28T05:42:23;101456.38;;;0.13;65.27
25944;BME280;13742;49.306;8.636;2023-02-28T05:43:23;101457.69;;;0.14;65.23
25944;BME280;13742;49.306;8.636;2023-02-28T05:44:23;101454.89;;;0.14;65.12
25944;BME280;13742;49.306;8.636;2023-02-28T05:45:23;101459.26;;;0.13;65.26
25944;BME280;13742;49.306;8.636;2023-02-28T05:46:23;101455.50;;;0.14;65.15
25944;BME280;13742;49.306;8.636;2023-02-28T05:47:23;101460.70;;;0.15;65.21
25944;BME280;13742;49.306;8.636;2023-02-28T05:48:23;101456.82;;;0.16;65.10